Flight Track Log - Related Links

Times and Time Zones

All times are in EDT time to prevent confusion due to time zone crossing. See the AAL1326 flight status page for this flight to view local times or setup timezone preferences in your user account.

Time Position Orientation Groundspeed Altitude Reporting Facility
EDT Latitude Longitude Course Direction KTS MPH feet Rate Location/Type
Fri 04:46:00 PM 39.4972 -94.4596 41° Northeast  Level FlightAware Approximate
Fri 04:47:00 PM 39.5780 -94.3641 45° Northeast  Level FlightAware Approximate
Fri 04:47:11 PM 39.5120 -94.6200 45° Northeast 293 337 10,200  Level FlightAware ADS-B
Fri 04:47:56 PM 39.5530 -94.5450 55° Northeast 347 399 11,700 2,047 Climbing FlightAware ADS-B
Fri 04:48:00 PM 39.6556 -94.2642 45° Northeast  Level FlightAware Approximate
Fri 04:48:36 PM 39.5900 -94.4730 56° Northeast 376 433 13,100  Level FlightAware ADS-B
Fri 04:49:21 PM 39.6360 -94.3850 56° Northeast 396 456 15,200 2,471 Climbing FlightAware ADS-B
Fri 04:50:01 PM 39.6790 -94.3040 55° Northeast 423 487 16,600 1,976 Climbing FlightAware ADS-B
Fri 04:50:46 PM 39.7300 -94.2080 55° Northeast 449 517 18,000 1,976 Climbing FlightAware ADS-B
Fri 04:51:26 PM 39.7800 -94.1190 54° Northeast 466 536 19,400 2,175 Climbing FlightAware ADS-B
Fri 04:52:06 PM 39.8320 -94.0260 54° Northeast 477 549 20,900 2,329 Climbing FlightAware ADS-B
Fri 04:52:51 PM 39.8920 -93.9190 54° Northeast 486 559 22,700 2,259 Climbing FlightAware ADS-B
Fri 04:53:31 PM 39.9460 -93.8230 54° Northeast 492 566 24,100 2,325 Climbing FlightAware ADS-B
Fri 04:54:11 PM 39.9980 -93.7310 54° Northeast 488 562 25,800 2,329 Climbing FlightAware ADS-B
Fri 04:54:56 PM 40.0480 -93.6140 61° Northeast 501 577 27,400 2,118 Climbing FlightAware ADS-B
Fri 04:55:36 PM 40.0770 -93.4970 72° East 503 579 28,800 1,976 Climbing FlightAware ADS-B
Fri 04:56:21 PM 40.1070 -93.3680 73° East 506 582 30,200 1,765 Climbing FlightAware ADS-B
Fri 04:57:01 PM 40.1330 -93.2560 73° East 508 585 31,300 1,875 Climbing FlightAware ADS-B
Fri 04:57:41 PM 40.1610 -93.1350 73° East 503 579 32,700 1,200 Climbing FlightAware ADS-B
Fri 04:58:26 PM 40.1910 -93.0070 73° East 500 575 33,000 212 Climbing FlightAware ADS-B
Fri 04:59:06 PM 40.2180 -92.8910 73° East 500 575 33,000  Level FlightAware ADS-B
Fri 04:59:51 PM 40.2480 -92.7600 73° East 501 577 33,000  Level FlightAware ADS-B
Fri 05:00:31 PM 40.2730 -92.6530 73° East 501 577 33,000  Level FlightAware ADS-B
Fri 05:01:11 PM 40.3020 -92.5270 73° East 502 578 33,000  Level FlightAware ADS-B
Fri 05:01:56 PM 40.3300 -92.4040 73° East 504 580 33,000  Level FlightAware ADS-B
Fri 05:02:31 PM 40.3520 -92.3110 73° East 505 581 33,000  Level FlightAware ADS-B
Fri 05:03:21 PM 40.3810 -92.1860 73° East 505 581 33,000  Level FlightAware ADS-B
Fri 05:04:01 PM 40.4040 -92.0860 73° East 505 581 33,000  Level FlightAware ADS-B
Fri 05:04:41 PM 40.4270 -91.9860 73° East 505 581 33,000  Level FlightAware ADS-B
Fri 05:05:26 PM 40.4690 -91.7830 75° East 511 588 33,000  Level FlightAware ADS-B
Fri 05:05:56 PM 40.4900 -91.6890 74° East 511 588 33,000  Level FlightAware ADS-B
Fri 05:06:41 PM 40.5200 -91.5530 74° East 509 586 33,000  Level FlightAware ADS-B
Fri 05:07:46 PM 40.5660 -91.3670 72° East 496 571 33,000  Level FlightAware ADS-B
Fri 05:08:26 PM 40.6020 -91.2630 65° Northeast 492 566 33,000  Level FlightAware ADS-B
Fri 05:09:21 PM 40.6550 -91.1070 66° East 492 566 33,000  Level FlightAware ADS-B
Fri 05:10:16 PM 40.7040 -90.9640 66° East 491 565 33,000  Level FlightAware ADS-B
Fri 05:10:51 PM 40.7370 -90.8650 66° East 491 565 33,000  Level FlightAware ADS-B
Fri 05:11:41 PM 40.7820 -90.7330 66° East 492 566 33,000  Level FlightAware ADS-B
Fri 05:12:21 PM 40.8230 -90.6120 66° East 491 565 33,000  Level FlightAware ADS-B
Fri 05:13:06 PM 40.8620 -90.4950 66° East 489 563 33,000  Level FlightAware ADS-B
Fri 05:13:41 PM 40.8960 -90.3930 66° East 488 562 33,000  Level FlightAware ADS-B
Fri 05:14:31 PM 40.9380 -90.2660 66° East 486 559 33,000 -67 Level FlightAware ADS-B
Fri 05:15:11 PM 40.9750 -90.1540 66° East 487 560 32,900 -900 Descending FlightAware ADS-B
Fri 05:15:51 PM 41.0120 -90.0410 67° East 487 560 31,800 -2,250 Descending FlightAware ADS-B
Fri 05:16:31 PM 41.0440 -89.9420 67° East 492 566 29,900 -3,106 Descending FlightAware ADS-B
Fri 05:17:16 PM 41.0880 -89.8110 66° East 498 573 27,400 -2,933 Descending FlightAware ADS-B
Fri 05:18:01 PM 41.1290 -89.6840 67° East 490 564 25,500 -2,400 Descending FlightAware ADS-B
Fri 05:18:41 PM 41.1670 -89.5700 66° East 471 542 24,000 -1,680 Descending FlightAware ADS-B
Fri 05:19:16 PM 41.2010 -89.4860 62° Northeast 463 533 23,400 -1,440 Descending FlightAware ADS-B
Fri 05:19:56 PM 41.2410 -89.3860 62° Northeast 448 516 22,200 -2,118 Descending FlightAware ADS-B
Fri 05:20:41 PM 41.2850 -89.2770 62° Northeast 438 504 20,400 -2,259 Descending FlightAware ADS-B
Fri 05:21:21 PM 41.3230 -89.1820 62° Northeast 430 495 19,000 -2,118 Descending FlightAware ADS-B
Fri 05:22:06 PM 41.3620 -89.0850 62° Northeast 419 482 17,400 -2,188 Descending FlightAware ADS-B
Fri 05:22:46 PM 41.3990 -88.9940 62° Northeast 407 468 15,900 -2,175 Descending FlightAware ADS-B
Fri 05:23:26 PM 41.4330 -88.9070 62° Northeast 397 457 14,500 -2,118 Descending FlightAware ADS-B
Fri 05:24:11 PM 41.4710 -88.8130 62° Northeast 388 447 12,900 -2,047 Descending FlightAware ADS-B
Fri 05:24:51 PM 41.5030 -88.7320 62° Northeast 377 434 11,600 -1,275 Descending FlightAware ADS-B
Fri 05:25:31 PM 41.5370 -88.6440 63° Northeast 370 426 11,200 -282 Descending FlightAware ADS-B
Fri 05:26:16 PM 41.5720 -88.5570 62° Northeast 370 426 11,200  Level FlightAware ADS-B
Fri 05:26:56 PM 41.6050 -88.4780 61° Northeast 371 427 11,200  Level FlightAware ADS-B
Fri 05:27:36 PM 41.6470 -88.4010 54° Northeast 348 400 11,200  Level FlightAware ADS-B
Fri 05:28:21 PM 41.6940 -88.3210 52° Northeast 371 427 11,200  Level FlightAware ADS-B
Fri 05:29:06 PM 41.7400 -88.2420 52° Northeast 371 427 11,200 -141 Level FlightAware ADS-B
Fri 05:29:46 PM 41.7810 -88.1710 52° Northeast 350 403 11,000 -600 Descending FlightAware ADS-B
Fri 05:30:26 PM 41.8210 -88.1020 52° Northeast 321 369 10,400 -1,029 Descending FlightAware ADS-B
Fri 05:30:56 PM 41.8470 -88.0550 53° Northeast 310 357 9,800 -1,309 Descending FlightAware ADS-B
Fri 05:31:21 PM 41.8620 -88.0130 64° Northeast 317 365 9,200 -1,333 Descending FlightAware ADS-B
Fri 05:31:41 PM 41.8670 -87.9760 80° East 314 361 8,800 -1,067 Descending FlightAware ADS-B
Fri 05:32:06 PM 41.8720 -87.9300 82° East 308 354 8,400 -1,200 Descending FlightAware ADS-B
Fri 05:32:16 PM 41.8740 -87.9070 83° East 303 349 8,100 -1,200 Descending FlightAware ADS-B
Fri 05:32:46 PM 41.8790 -87.8590 82° East 298 343 7,600 -1,200 Descending FlightAware ADS-B
Fri 05:33:01 PM 41.8820 -87.8260 83° East 297 342 7,200 -667 Descending FlightAware ADS-B
Fri 05:33:31 PM 41.8840 -87.7730 87° East 295 339 7,100 -840 Descending FlightAware ADS-B
Fri 05:33:51 PM 41.8840 -87.7310 90° East 298 343 6,500 -1,650 Descending FlightAware ADS-B
Fri 05:34:11 PM 41.8840 -87.6980 90° East 297 342 6,000 -1,440 Descending FlightAware ADS-B
Fri 05:34:41 PM 41.8840 -87.6430 90° East 296 341 5,300 -873 Descending FlightAware ADS-B
Fri 05:35:06 PM 41.8840 -87.5960 90° East 281 323 5,200 -109 Descending FlightAware ADS-B
Fri 05:35:36 PM 41.8840 -87.5470 90° East 272 313 5,200  Level FlightAware ADS-B
Fri 05:35:51 PM 41.8840 -87.5190 90° East 264 304 5,200  Level FlightAware ADS-B
Fri 05:36:16 PM 41.8840 -87.4810 90° East 255 293 5,200  Level FlightAware ADS-B
Fri 05:36:46 PM 41.8830 -87.4330 92° East 252 290 5,200  Level FlightAware ADS-B
Fri 05:37:01 PM 41.8830 -87.4090 90° East 250 288 5,200 109 Level FlightAware ADS-B
Fri 05:37:41 PM 41.8980 -87.3550 70° East 240 276 5,300  Climbing FlightAware ADS-B
Fri 05:37:56 PM 41.9120 -87.3490 18° North 230 265 5,200 -109 Descending FlightAware ADS-B
Fri 05:38:36 PM 41.9490 -87.3640 343° North 205 236 5,200  Level FlightAware ADS-B
Fri 05:39:06 PM 41.9630 -87.3960 300° West 192 221 5,200  Level FlightAware ADS-B
Fri 05:39:21 PM 41.9680 -87.4110 294° West 172 198 5,200  Level FlightAware ADS-B
Fri 05:40:01 PM 41.9690 -87.4520 272° West 159 183 5,200  Level FlightAware ADS-B
Fri 05:40:26 PM 41.9690 -87.4740 270° West 158 182 5,200  Level FlightAware ADS-B
Fri 05:40:51 PM 41.9690 -87.4980 270° West 157 181 5,200  Level FlightAware ADS-B
Fri 05:41:26 PM 41.9690 -87.5330 270° West 156 180 5,200  Level FlightAware ADS-B
Fri 05:41:46 PM 41.9690 -87.5520 270° West 155 178 5,200  Level FlightAware ADS-B
Fri 05:42:16 PM 41.9690 -87.5830 270° West 155 178 5,200 -120 Level FlightAware ADS-B
Fri 05:42:36 PM 41.9690 -87.6020 270° West 156 180 5,100 -667 Descending FlightAware ADS-B
Fri 05:43:01 PM 41.9690 -87.6250 270° West 156 180 4,700 -857 Descending FlightAware ADS-B
Fri 05:43:46 PM 41.9690 -87.6690 270° West 153 176 4,100 -831 Descending FlightAware ADS-B
Fri 05:44:06 PM 41.9690 -87.6870 270° West 152 175 3,800 -873 Descending FlightAware ADS-B
Fri 05:44:41 PM 41.9690 -87.7220 270° West 149 171 3,300 -831 Descending FlightAware ADS-B
Fri 05:45:11 PM 41.9690 -87.7470 270° West 135 155 2,900 -764 Descending FlightAware ADS-B
Fri 05:45:36 PM 41.9690 -87.7640 270° West 127 146 2,600 -655 Descending FlightAware ADS-B
Fri 05:46:06 PM 41.9690 -87.7890 270° West 120 138 2,300 -655 Descending FlightAware ADS-B
Fri 05:46:31 PM 41.9690 -87.8080 270° West 129 148 2,000 -738 Descending FlightAware ADS-B
Fri 05:47:11 PM 41.9690 -87.8420 270° West 126 145 1,500 -720 Descending FlightAware ADS-B
Fri 05:47:46 PM 41.9690 -87.8680 270° West 129 148 1,100 -700 Descending FlightAware ADS-B
Fri 05:48:11 PM 41.9690 -87.8870 270° West 128 147 800 -720 Descending FlightAware ADS-B

Login

Don't have an account? Register now (free) for customized features, flight alerts, and more!